createdAt,value
2019-05-02T00:01:44.995Z,15.80
2019-05-02T00:04:20.007Z,14.70
2019-05-02T00:06:45.868Z,16.43
2019-05-02T00:09:14.497Z,14.70
2019-05-02T00:11:57.660Z,15.67
2019-05-02T00:14:15.182Z,15.03
2019-05-02T00:16:45.208Z,14.97
2019-05-02T00:19:15.378Z,14.50
2019-05-02T00:21:44.172Z,14.13
2019-05-02T00:24:13.181Z,14.53
2019-05-02T00:26:41.860Z,13.90
2019-05-02T00:29:10.561Z,14.83
2019-05-02T00:31:41.767Z,14.00
2019-05-02T00:34:09.515Z,13.20
2019-05-02T00:36:38.202Z,15.30
2019-05-02T00:39:09.503Z,13.70
2019-05-02T00:41:40.353Z,14.70
2019-05-02T00:44:10.962Z,13.63
2019-05-02T00:46:39.155Z,13.90
2019-05-02T00:49:07.850Z,14.70
2019-05-02T00:51:36.468Z,14.23
2019-05-02T00:54:05.246Z,14.63
2019-05-02T00:56:33.871Z,14.00
2019-05-02T00:59:07.080Z,12.70
2019-05-02T01:01:34.706Z,12.67
2019-05-02T01:04:07.819Z,12.63
2019-05-02T01:06:36.682Z,12.83
2019-05-02T01:09:11.181Z,12.07
2019-05-02T01:11:37.571Z,13.07
2019-05-02T01:14:06.205Z,13.17
2019-05-02T01:16:34.823Z,11.47
2019-05-02T01:19:03.498Z,12.10
2019-05-02T01:21:34.072Z,13.23
2019-05-02T01:24:03.234Z,12.30
2019-05-02T01:26:37.608Z,11.73
2019-05-02T01:29:07.851Z,12.80
2019-05-02T01:31:49.919Z,11.57
2019-05-02T01:34:27.830Z,12.43
2019-05-02T01:37:20.827Z,13.00
2019-05-02T01:39:44.578Z,13.37
2019-05-02T01:42:13.257Z,13.30
2019-05-02T01:44:41.891Z,12.27
2019-05-02T01:47:10.475Z,12.73
2019-05-02T01:49:39.093Z,14.50
2019-05-02T01:52:08.090Z,13.53
2019-05-02T01:54:40.745Z,12.93
2019-05-02T01:57:08.811Z,12.53
2019-05-02T01:59:37.390Z,12.87
2019-05-02T02:02:06.142Z,14.23
2019-05-02T02:04:35.281Z,13.83
2019-05-02T02:07:04.414Z,13.37
2019-05-02T02:09:33.015Z,12.67
2019-05-02T02:12:04.935Z,13.90
2019-05-02T02:14:31.983Z,13.50
2019-05-02T02:17:00.577Z,12.50
2019-05-02T02:19:40.752Z,14.03
2019-05-02T02:22:11.007Z,13.80
2019-05-02T02:24:47.670Z,13.47
2019-05-02T02:27:19.866Z,13.40
2019-05-02T02:29:46.671Z,13.13
2019-05-02T02:32:20.378Z,14.43
2019-05-02T02:34:45.645Z,13.17
2019-05-02T02:37:15.158Z,12.67
2019-05-02T02:39:48.547Z,12.30
2019-05-02T02:42:14.395Z,12.03
2019-05-02T02:44:44.706Z,11.97
2019-05-02T02:47:18.713Z,10.43
2019-05-02T02:49:43.731Z,12.37
2019-05-02T02:52:12.332Z,11.57
2019-05-02T02:54:43.518Z,11.17
2019-05-02T02:57:20.078Z,12.07
2019-05-02T02:59:41.865Z,12.60
2019-05-02T03:02:12.182Z,12.03
2019-05-02T03:04:44.082Z,11.33
2019-05-02T03:07:11.543Z,12.20
2019-05-02T03:09:40.247Z,12.17
2019-05-02T03:12:22.566Z,11.40
2019-05-02T03:14:56.868Z,12.30
2019-05-02T03:17:28.413Z,10.83
2019-05-02T03:20:00.947Z,10.80
2019-05-02T03:22:26.282Z,11.00
2019-05-02T03:24:54.946Z,10.73
2019-05-02T03:27:29.706Z,10.50
2019-05-02T03:29:54.027Z,9.80
2019-05-02T03:32:33.775Z,11.80
2019-05-02T03:34:54.475Z,10.60
2019-05-02T03:37:23.238Z,11.20
2019-05-02T03:39:57.253Z,11.53
2019-05-02T03:42:22.658Z,10.37
2019-05-02T03:44:56.232Z,9.70
2019-05-02T03:47:22.396Z,9.47
2019-05-02T03:49:52.236Z,9.43
2019-05-02T03:52:21.360Z,10.30
2019-05-02T03:54:52.371Z,10.13
2019-05-02T03:57:31.703Z,10.20
2019-05-02T03:59:50.903Z,11.00
2019-05-02T04:02:20.568Z,10.10
2019-05-02T04:04:54.050Z,9.17
2019-05-02T04:07:20.584Z,9.97
2019-05-02T04:09:49.407Z,9.70
2019-05-02T04:12:21.347Z,9.93
2019-05-02T04:14:55.329Z,9.80
2019-05-02T04:17:19.972Z,10.93
2019-05-02T04:19:49.452Z,10.70
2019-05-02T04:22:18.481Z,9.90
2019-05-02T04:24:53.886Z,9.33
2019-05-02T04:27:18.204Z,9.00
2019-05-02T04:29:46.862Z,9.97
2019-05-02T04:32:15.568Z,9.10
2019-05-02T04:34:48.909Z,9.07
2019-05-02T04:37:14.581Z,8.93
2019-05-02T04:39:43.195Z,9.70
2019-05-02T04:42:18.234Z,9.80
2019-05-02T04:45:07.566Z,9.30
2019-05-02T04:47:17.537Z,8.57
2019-05-02T04:49:42.971Z,9.10
2019-05-02T04:52:14.669Z,9.77
2019-05-02T04:54:41.949Z,10.43
2019-05-02T04:57:10.620Z,10.77
2019-05-02T04:59:39.787Z,9.67
2019-05-02T05:02:09.265Z,9.63
2019-05-02T05:04:42.509Z,9.20
2019-05-02T05:07:09.333Z,10.00
2019-05-02T05:09:39.992Z,8.80
2019-05-02T05:12:08.810Z,9.17
2019-05-02T05:14:39.447Z,8.00
2019-05-02T05:17:08.050Z,7.60
2019-05-02T05:19:37.375Z,8.00
2019-05-02T05:22:08.859Z,8.50
2019-05-02T05:24:42.148Z,7.73
2019-05-02T05:27:08.456Z,7.97
2019-05-02T05:29:38.758Z,7.00
2019-05-02T05:32:10.074Z,7.43
2019-05-02T05:34:38.028Z,6.60
2019-05-02T05:37:09.412Z,7.63
2019-05-02T05:39:38.110Z,8.50
2019-05-02T05:42:10.347Z,7.17
2019-05-02T05:44:37.531Z,8.30
2019-05-02T05:47:12.172Z,6.83
2019-05-02T05:49:38.110Z,6.67
2019-05-02T05:52:08.093Z,7.13
2019-05-02T05:54:38.354Z,6.60
2019-05-02T05:57:07.691Z,6.30
2019-05-02T05:59:38.022Z,6.63
2019-05-02T06:02:13.139Z,7.07
2019-05-02T06:04:38.735Z,6.50
2019-05-02T06:07:07.590Z,7.53
2019-05-02T06:09:36.203Z,7.17
2019-05-02T06:12:05.000Z,7.20
2019-05-02T06:14:34.572Z,7.27
2019-05-02T06:17:03.471Z,6.90
2019-05-02T06:19:32.145Z,6.43
2019-05-02T06:22:00.905Z,6.70
2019-05-02T06:24:29.494Z,6.53
2019-05-02T06:26:58.092Z,7.57
2019-05-02T06:29:27.479Z,7.80
2019-05-02T06:31:59.141Z,7.60
2019-05-02T06:34:27.740Z,8.57
2019-05-02T06:36:56.367Z,7.43
2019-05-02T06:39:27.054Z,7.87
2019-05-02T06:41:57.493Z,7.20
2019-05-02T06:44:25.807Z,7.90
2019-05-02T06:46:54.511Z,8.03
2019-05-02T06:49:24.904Z,8.90
2019-05-02T06:51:56.341Z,7.30
2019-05-02T06:54:24.152Z,8.20
2019-05-02T06:56:52.769Z,8.13
2019-05-02T06:59:21.548Z,8.17
2019-05-02T07:01:52.399Z,8.73
2019-05-02T07:04:22.875Z,8.13
2019-05-02T07:06:58.606Z,8.90
2019-05-02T07:09:21.746Z,8.30
2019-05-02T07:11:57.063Z,9.10
2019-05-02T07:14:23.655Z,9.80
2019-05-02T07:17:01.787Z,9.50
2019-05-02T07:19:37.947Z,8.80
2019-05-02T07:22:06.724Z,9.57
2019-05-02T07:24:35.330Z,10.23
2019-05-02T07:27:04.194Z,8.87
2019-05-02T07:29:32.867Z,10.00
2019-05-02T07:32:01.463Z,9.70
2019-05-02T07:34:30.147Z,9.97
2019-05-02T07:36:58.811Z,10.30
2019-05-02T07:39:27.544Z,10.83
2019-05-02T07:42:00.641Z,9.57
2019-05-02T07:44:27.257Z,10.30
2019-05-02T07:47:02.398Z,10.57
2019-05-02T07:49:32.338Z,9.57
2019-05-02T07:51:58.937Z,10.40
2019-05-02T07:54:27.658Z,11.20
2019-05-02T07:56:56.267Z,10.93
2019-05-02T07:59:25.166Z,10.50
2019-05-02T08:01:53.918Z,9.97
2019-05-02T08:04:22.558Z,11.10
2019-05-02T08:06:51.155Z,10.27
2019-05-02T08:09:19.907Z,10.57
2019-05-02T08:11:48.635Z,11.70
2019-05-02T08:14:17.299Z,11.87
2019-05-02T08:16:45.895Z,12.70
2019-05-02T08:19:14.516Z,12.83
2019-05-02T08:21:43.086Z,12.50
2019-05-02T08:24:11.711Z,12.78
2019-05-02T08:26:45.008Z,12.33
2019-05-02T08:29:13.950Z,12.10
2019-05-02T08:31:42.637Z,14.37
2019-05-02T08:34:15.014Z,12.20
2019-05-02T08:36:41.554Z,12.50
2019-05-02T08:39:10.207Z,13.30
2019-05-02T08:41:38.787Z,13.13
2019-05-02T08:44:07.417Z,11.60
2019-05-02T08:46:36.035Z,12.90
2019-05-02T08:49:04.855Z,13.77
2019-05-02T08:51:33.439Z,13.80
2019-05-02T08:54:02.025Z,14.67
2019-05-02T08:56:30.643Z,14.57
2019-05-02T08:58:59.297Z,14.10
2019-05-02T09:01:34.872Z,13.57
2019-05-02T09:03:58.615Z,12.70
2019-05-02T09:06:27.340Z,13.30
2019-05-02T09:08:55.974Z,13.50
2019-05-02T09:11:24.567Z,13.70
2019-05-02T09:13:53.443Z,13.53
2019-05-02T09:16:28.617Z,13.73
2019-05-02T09:18:54.155Z,14.27
2019-05-02T09:21:26.821Z,14.03
2019-05-02T09:23:53.135Z,16.20
2019-05-02T09:26:33.283Z,14.50
2019-05-02T09:28:56.298Z,15.07
2019-05-02T09:31:23.302Z,13.13
2019-05-02T09:33:52.104Z,14.57
2019-05-02T09:36:22.761Z,15.20
2019-05-02T09:38:53.979Z,14.77
2019-05-02T09:41:22.217Z,15.23
2019-05-02T09:43:52.348Z,13.93
2019-05-02T09:46:21.768Z,14.27
2019-05-02T09:48:51.944Z,15.30
2019-05-02T09:51:21.661Z,14.90
2019-05-02T09:53:52.289Z,15.63
2019-05-02T09:56:22.005Z,14.90
2019-05-02T09:58:55.365Z,15.50
2019-05-02T10:01:25.386Z,15.53
2019-05-02T10:03:54.051Z,15.10
2019-05-02T10:06:23.022Z,15.87
2019-05-02T10:08:52.164Z,16.03
2019-05-02T10:11:22.463Z,15.77
2019-05-02T10:13:51.882Z,16.13
2019-05-02T10:16:23.576Z,16.47
2019-05-02T10:18:52.298Z,16.20
2019-05-02T10:21:22.816Z,16.00
2019-05-02T10:23:59.045Z,15.80
2019-05-02T10:26:24.579Z,17.03
2019-05-02T10:28:53.362Z,14.70
2019-05-02T10:31:22.311Z,17.30
2019-05-02T10:33:52.983Z,17.10
2019-05-02T10:36:23.716Z,17.03
2019-05-02T10:38:54.812Z,15.77
2019-05-02T10:41:22.433Z,15.17
2019-05-02T10:43:55.879Z,15.27
2019-05-02T10:46:27.911Z,16.20
2019-05-02T10:48:55.951Z,16.10
2019-05-02T10:51:26.413Z,16.33
2019-05-02T10:53:56.590Z,15.23
2019-05-02T10:56:25.444Z,16.37
2019-05-02T10:58:54.231Z,14.23
2019-05-02T11:01:23.682Z,15.07
2019-05-02T11:03:54.014Z,15.13
2019-05-02T11:06:22.620Z,15.27
2019-05-02T11:08:52.433Z,15.90
2019-05-02T11:11:22.050Z,15.20
2019-05-02T11:13:53.399Z,15.73
2019-05-02T11:16:39.624Z,16.67
2019-05-02T11:19:22.396Z,15.77
2019-05-02T11:21:56.443Z,13.90
2019-05-02T11:24:22.514Z,15.33
2019-05-02T11:26:52.847Z,15.00
2019-05-02T11:29:22.775Z,14.47
2019-05-02T11:31:52.066Z,15.97
2019-05-02T11:34:22.051Z,15.00
2019-05-02T11:36:52.707Z,17.10
2019-05-02T11:39:32.625Z,16.13
2019-05-02T11:41:52.748Z,14.70
2019-05-02T11:44:22.622Z,14.40
2019-05-02T11:46:52.195Z,14.87
2019-05-02T11:49:22.818Z,16.70
2019-05-02T11:51:52.736Z,14.17
2019-05-02T11:54:22.667Z,15.03
2019-05-02T11:56:53.611Z,15.10
2019-05-02T11:59:27.698Z,15.20
2019-05-02T12:01:59.718Z,15.30
2019-05-02T12:04:24.939Z,14.80
2019-05-02T12:07:01.154Z,14.60
2019-05-02T12:09:23.935Z,16.17
2019-05-02T12:11:56.620Z,13.93
2019-05-02T12:14:27.472Z,15.53
2019-05-02T12:16:54.164Z,14.93
2019-05-02T12:19:22.995Z,13.83
2019-05-02T12:21:56.175Z,15.53
2019-05-02T12:24:24.913Z,16.60
2019-05-02T12:26:53.614Z,14.90
2019-05-02T12:29:22.215Z,14.60
2019-05-02T12:31:52.703Z,13.90
2019-05-02T12:34:21.742Z,14.33
2019-05-02T12:36:52.305Z,15.20
2019-05-02T12:39:22.165Z,16.20
2019-05-02T12:41:53.321Z,13.93
2019-05-02T12:44:22.316Z,15.17
2019-05-02T12:46:51.770Z,13.07
2019-05-02T12:49:25.399Z,13.77
2019-05-02T12:51:52.487Z,13.10
2019-05-02T12:54:21.939Z,14.20
2019-05-02T12:56:52.870Z,12.80
2019-05-02T12:59:22.508Z,13.97
2019-05-02T13:01:51.893Z,14.27
2019-05-02T13:04:22.821Z,14.00
2019-05-02T13:06:52.800Z,14.30
2019-05-02T13:09:23.388Z,13.43
2019-05-02T13:11:59.257Z,11.67
2019-05-02T13:14:29.212Z,10.77
2019-05-02T13:17:01.542Z,10.57
2019-05-02T13:19:38.027Z,10.73
2019-05-02T13:22:12.354Z,11.37
2019-05-02T13:24:42.444Z,10.67
2019-05-02T13:27:13.395Z,10.97
2019-05-02T13:29:42.840Z,9.80
2019-05-02T13:32:26.748Z,11.87
2019-05-02T13:35:02.639Z,11.40
2019-05-02T13:37:31.865Z,10.23
2019-05-02T13:40:05.327Z,10.20
2019-05-02T13:42:33.908Z,11.60
2019-05-02T13:45:21.749Z,12.07
2019-05-02T13:47:51.917Z,11.50
2019-05-02T13:50:22.319Z,11.30
2019-05-02T13:52:56.382Z,10.67
2019-05-02T13:55:23.761Z,11.27
2019-05-02T13:57:52.999Z,13.17
2019-05-02T14:00:26.630Z,11.60
2019-05-02T14:02:55.356Z,11.77
2019-05-02T14:05:23.944Z,11.13
2019-05-02T14:07:57.209Z,10.70
2019-05-02T14:10:39.092Z,12.53
2019-05-02T14:13:03.550Z,12.20
2019-05-02T14:15:33.844Z,13.40
2019-05-02T14:18:02.624Z,13.00
2019-05-02T14:20:33.077Z,13.23
2019-05-02T14:23:02.264Z,13.30
2019-05-02T14:25:32.125Z,12.90
2019-05-02T14:28:02.941Z,13.07
2019-05-02T14:30:37.327Z,13.57
2019-05-02T14:33:03.442Z,14.37
2019-05-02T14:35:36.126Z,14.60
2019-05-02T14:38:07.870Z,14.43
2019-05-02T14:40:39.561Z,14.87
2019-05-02T14:43:08.345Z,14.37
2019-05-02T14:45:36.927Z,14.37
2019-05-02T14:48:18.505Z,14.87
2019-05-02T14:50:36.446Z,14.57
2019-05-02T14:53:06.371Z,15.50
2019-05-02T14:55:36.679Z,16.23
2019-05-02T14:58:05.921Z,16.53
2019-05-02T15:00:39.339Z,15.60
2019-05-02T15:03:06.855Z,14.60
2019-05-02T15:05:35.448Z,15.97
2019-05-02T15:08:06.782Z,15.70
2019-05-02T15:10:49.013Z,17.03
2019-05-02T15:13:05.916Z,16.80
2019-05-02T15:15:40.705Z,14.80
2019-05-02T15:18:07.980Z,16.53
2019-05-02T15:20:38.720Z,16.97
2019-05-02T15:23:07.096Z,16.70
2019-05-02T15:25:36.463Z,16.40
2019-05-02T15:28:05.072Z,18.03
2019-05-02T15:30:36.990Z,16.23
2019-05-02T15:33:05.709Z,17.70
2019-05-02T15:35:38.723Z,17.63
2019-05-02T15:38:09.207Z,17.67
2019-05-02T15:40:46.840Z,17.17
2019-05-02T15:43:09.571Z,17.57
2019-05-02T15:45:42.165Z,18.50
2019-05-02T15:48:09.303Z,17.50
2019-05-02T15:50:48.731Z,17.13
2019-05-02T15:53:12.340Z,18.10
2019-05-02T15:55:43.599Z,17.37
2019-05-02T15:58:16.911Z,19.00
2019-05-02T16:00:51.898Z,18.83
2019-05-02T16:03:21.993Z,18.03
2019-05-02T16:05:52.371Z,18.93
2019-05-02T16:08:21.519Z,18.83
2019-05-02T16:10:50.259Z,19.40
2019-05-02T16:13:18.859Z,19.83
2019-05-02T16:15:47.662Z,19.10
2019-05-02T16:18:16.323Z,17.90
2019-05-02T16:20:49.383Z,19.90
2019-05-02T16:23:29.867Z,18.97
2019-05-02T16:25:50.109Z,19.67
2019-05-02T16:28:18.912Z,20.07
2019-05-02T16:30:49.134Z,19.43
2019-05-02T16:33:20.737Z,20.10
2019-05-02T16:35:52.920Z,18.37
2019-05-02T16:38:18.632Z,20.40
2019-05-02T16:40:47.290Z,19.77
2019-05-02T16:43:15.869Z,19.40
2019-05-02T16:45:44.547Z,18.83
2019-05-02T16:48:13.151Z,19.20
2019-05-02T16:50:44.749Z,19.17
2019-05-02T16:53:12.080Z,17.47
2019-05-02T16:55:43.428Z,18.40
2019-05-02T16:58:11.831Z,18.50
2019-05-02T17:00:44.016Z,19.10
2019-05-02T17:03:12.664Z,19.53
2019-05-02T17:05:44.221Z,17.97
2019-05-02T17:08:19.917Z,19.90
2019-05-02T17:10:53.715Z,20.73
2019-05-02T17:13:21.460Z,20.30
2019-05-02T17:15:49.907Z,19.73
2019-05-02T17:18:18.531Z,20.17
2019-05-02T17:20:53.573Z,19.80
2019-05-02T17:23:17.712Z,20.60
2019-05-02T17:25:46.451Z,20.37
2019-05-02T17:28:15.288Z,20.00
2019-05-02T17:30:44.223Z,21.23
2019-05-02T17:33:16.034Z,22.33
2019-05-02T17:35:49.347Z,23.90
2019-05-02T17:38:13.842Z,22.50
2019-05-02T17:40:42.427Z,25.13
2019-05-02T17:43:11.136Z,22.23
2019-05-02T17:45:40.290Z,25.30
2019-05-02T17:48:15.733Z,23.20
2019-05-02T17:50:42.227Z,22.87
2019-05-02T17:53:11.659Z,22.37
2019-05-02T17:55:42.674Z,22.73
2019-05-02T17:58:12.742Z,25.90
2019-05-02T18:00:47.501Z,24.30
2019-05-02T18:03:16.407Z,25.37
2019-05-02T18:05:45.078Z,24.77
2019-05-02T18:08:14.847Z,24.90
2019-05-02T18:10:43.683Z,27.97
2019-05-02T18:13:12.368Z,26.03
2019-05-02T18:15:41.715Z,26.63
2019-05-02T18:18:10.879Z,25.50
2019-05-02T18:20:42.742Z,25.97
2019-05-02T18:23:12.242Z,28.13
2019-05-02T18:25:41.482Z,27.73
2019-05-02T18:28:14.010Z,27.63
2019-05-02T18:30:41.745Z,28.10
2019-05-02T18:33:12.042Z,29.70
2019-05-02T18:35:46.796Z,28.00
2019-05-02T18:38:16.029Z,29.20
2019-05-02T18:40:44.509Z,27.07
2019-05-02T18:43:13.766Z,30.47
2019-05-02T18:45:42.837Z,28.57
2019-05-02T18:48:12.727Z,28.00
2019-05-02T18:50:46.962Z,28.93
2019-05-02T18:53:18.720Z,28.30
2019-05-02T18:55:45.634Z,29.67
2019-05-02T18:58:14.628Z,27.50
2019-05-02T19:00:43.782Z,28.00
2019-05-02T19:03:16.962Z,28.07
2019-05-02T19:05:46.776Z,28.77
2019-05-02T19:08:27.592Z,26.00
2019-05-02T19:11:04.103Z,30.00
2019-05-02T19:13:17.523Z,30.57
2019-05-02T19:15:48.862Z,27.30
2019-05-02T19:18:18.074Z,28.90
2019-05-02T19:20:57.479Z,27.97
2019-05-02T19:23:24.269Z,27.10
2019-05-02T19:25:56.187Z,26.40
2019-05-02T19:28:39.130Z,27.23
2019-05-02T19:31:08.076Z,28.10
2019-05-02T19:33:42.078Z,26.57
2019-05-02T19:36:07.599Z,25.97
2019-05-02T19:38:36.252Z,28.47
2019-05-02T19:41:08.844Z,26.60
2019-05-02T19:43:40.481Z,27.60
2019-05-02T19:46:05.969Z,27.83
2019-05-02T19:48:36.796Z,25.07
2019-05-02T19:51:05.438Z,25.27
2019-05-02T19:53:34.430Z,25.43
2019-05-02T19:56:03.182Z,25.47
2019-05-02T19:58:36.863Z,24.73
2019-05-02T20:01:05.087Z,24.83
2019-05-02T20:03:33.789Z,23.93
2019-05-02T20:06:06.122Z,24.00
2019-05-02T20:08:32.827Z,23.57
2019-05-02T20:11:02.161Z,21.67
2019-05-02T20:13:32.593Z,24.37
2019-05-02T20:16:06.074Z,22.13
2019-05-02T20:18:42.406Z,24.13
2019-05-02T20:21:12.157Z,21.60
2019-05-02T20:23:49.018Z,21.97
2019-05-02T20:26:17.693Z,19.70
2019-05-02T20:28:46.367Z,19.90
2019-05-02T20:31:15.040Z,19.10
2019-05-02T20:33:43.789Z,14.30
2019-05-02T20:36:12.557Z,12.90
2019-05-02T20:38:41.766Z,13.53
2019-05-02T20:41:12.527Z,12.30
2019-05-02T20:43:42.909Z,11.00
2019-05-02T20:46:12.120Z,8.93
2019-05-02T20:48:41.823Z,9.27
2019-05-02T20:51:12.238Z,9.27
2019-05-02T20:53:42.106Z,9.03
2019-05-02T20:56:12.392Z,7.67
2019-05-02T20:58:41.942Z,8.53
2019-05-02T21:01:12.471Z,9.33
2019-05-02T21:03:42.785Z,9.67
2019-05-02T21:06:13.225Z,8.90
2019-05-02T21:08:43.450Z,9.80
2019-05-02T21:11:12.499Z,9.50
2019-05-02T21:13:41.812Z,8.70
2019-05-02T21:16:12.103Z,9.33
2019-05-02T21:18:42.241Z,10.20
2019-05-02T21:21:12.627Z,10.90
2019-05-02T21:23:47.172Z,11.47
2019-05-02T21:26:12.155Z,10.43
2019-05-02T21:28:42.689Z,10.03
2019-05-02T21:31:12.108Z,10.40
2019-05-02T21:33:42.767Z,9.30
2019-05-02T21:36:12.158Z,9.00
2019-05-02T21:38:42.548Z,9.40
2019-05-02T21:41:11.950Z,8.40
2019-05-02T21:43:42.492Z,9.40
2019-05-02T21:46:11.458Z,10.20
2019-05-02T21:48:42.040Z,9.80
2019-05-02T21:51:25.004Z,8.20
2019-05-02T21:54:03.806Z,8.83
2019-05-02T21:56:40.002Z,8.30
2019-05-02T21:59:12.155Z,7.80
2019-05-02T22:01:48.781Z,6.63
2019-05-02T22:04:17.772Z,5.40
2019-05-02T22:06:46.801Z,5.13
2019-05-02T22:09:15.515Z,5.77
2019-05-02T22:11:44.355Z,4.10
2019-05-02T22:14:13.485Z,4.20
2019-05-02T22:16:42.452Z,3.60
2019-05-02T22:19:11.019Z,3.53
2019-05-02T22:21:39.663Z,3.97
2019-05-02T22:24:11.765Z,4.00
2019-05-02T22:26:38.647Z,3.20
2019-05-02T22:29:07.310Z,3.90
2019-05-02T22:31:36.197Z,3.10
2019-05-02T22:34:05.263Z,2.80
2019-05-02T22:36:34.068Z,3.10
2019-05-02T22:39:04.283Z,3.43
2019-05-02T22:41:32.895Z,3.07
2019-05-02T22:44:01.858Z,2.73
2019-05-02T22:46:43.840Z,2.83
2019-05-02T22:49:14.755Z,2.80
2019-05-02T22:51:44.611Z,2.60
2019-05-02T22:54:24.103Z,3.57
2019-05-02T22:56:43.774Z,2.70
2019-05-02T22:59:12.882Z,2.80
2019-05-02T23:01:42.615Z,2.40
2019-05-02T23:04:12.727Z,2.10
2019-05-02T23:06:44.148Z,2.37
2019-05-02T23:09:12.888Z,2.60
2019-05-02T23:11:42.567Z,3.13
2019-05-02T23:14:11.603Z,2.90
2019-05-02T23:16:42.637Z,2.23
2019-05-02T23:19:12.272Z,2.80
2019-05-02T23:21:42.207Z,2.67
2019-05-02T23:24:14.554Z,3.80
2019-05-02T23:26:45.133Z,2.60
2019-05-02T23:29:16.027Z,2.50
2019-05-02T23:31:44.751Z,2.40
2019-05-02T23:34:14.120Z,1.77
2019-05-02T23:36:42.705Z,1.90
2019-05-02T23:39:12.617Z,2.23
2019-05-02T23:41:42.040Z,2.20
2019-05-02T23:44:12.298Z,2.80
2019-05-02T23:46:42.393Z,2.60
2019-05-02T23:49:12.744Z,2.63
2019-05-02T23:51:42.685Z,2.50
2019-05-02T23:54:12.917Z,2.60
2019-05-02T23:56:43.123Z,2.53
2019-05-02T23:59:12.487Z,2.73
